sensor_id;sensor_type;location;lat;lon;timestamp;P1;P2;P0
38451;PMS5003;24231;52.514;13.438;2023-05-28T00:01:58;12;12;
38451;PMS5003;24231;52.514;13.438;2023-05-28T00:04:26;10;10;
38451;PMS5003;24231;52.514;13.438;2023-05-28T00:06:52;9;9;
38451;PMS5003;24231;52.514;13.438;2023-05-28T00:09:19;11;11;
38451;PMS5003;24231;52.514;13.438;2023-05-28T00:11:46;8;8;
38451;PMS5003;24231;52.514;13.438;2023-05-28T00:14:13;10;8;
38451;PMS5003;24231;52.514;13.438;2023-05-28T00:16:41;8;8;
38451;PMS5003;24231;52.514;13.438;2023-05-28T00:19:08;16;13;
38451;PMS5003;24231;52.514;13.438;2023-05-28T00:21:36;10;7;
38451;PMS5003;24231;52.514;13.438;2023-05-28T00:24:03;14;10;
38451;PMS5003;24231;52.514;13.438;2023-05-28T00:26:31;15;13;
38451;PMS5003;24231;52.514;13.438;2023-05-28T00:28:58;16;14;
38451;PMS5003;24231;52.514;13.438;2023-05-28T00:31:26;10;9;
38451;PMS5003;24231;52.514;13.438;2023-05-28T00:33:58;14;12;
38451;PMS5003;24231;52.514;13.438;2023-05-28T00:36:50;9;8;
38451;PMS5003;24231;52.514;13.438;2023-05-28T00:39:19;11;11;
38451;PMS5003;24231;52.514;13.438;2023-05-28T00:41:47;11;11;
38451;PMS5003;24231;52.514;13.438;2023-05-28T00:44:14;10;9;
38451;PMS5003;24231;52.514;13.438;2023-05-28T00:46:42;11;9;
38451;PMS5003;24231;52.514;13.438;2023-05-28T00:49:11;18;16;
38451;PMS5003;24231;52.514;13.438;2023-05-28T00:51:38;12;10;
38451;PMS5003;24231;52.514;13.438;2023-05-28T00:54:06;9;8;
38451;PMS5003;24231;52.514;13.438;2023-05-28T01:01:32;12;12;
38451;PMS5003;24231;52.514;13.438;2023-05-28T01:04:01;9;8;
38451;PMS5003;24231;52.514;13.438;2023-05-28T01:06:34;12;9;
38451;PMS5003;24231;52.514;13.438;2023-05-28T01:09:02;17;11;
38451;PMS5003;24231;52.514;13.438;2023-05-28T01:11:29;15;9;
38451;PMS5003;24231;52.514;13.438;2023-05-28T01:14:09;12;12;
38451;PMS5003;24231;52.514;13.438;2023-05-28T01:16:37;9;9;
38451;PMS5003;24231;52.514;13.438;2023-05-28T01:19:05;7;7;
38451;PMS5003;24231;52.514;13.438;2023-05-28T01:21:37;13;13;
38451;PMS5003;24231;52.514;13.438;2023-05-28T01:24:08;10;10;
38451;PMS5003;24231;52.514;13.438;2023-05-28T01:26:36;8;7;
38451;PMS5003;24231;52.514;13.438;2023-05-28T01:29:13;11;9;
38451;PMS5003;24231;52.514;13.438;2023-05-28T01:31:40;13;13;
38451;PMS5003;24231;52.514;13.438;2023-05-28T01:34:08;9;7;
38451;PMS5003;24231;52.514;13.438;2023-05-28T01:36:37;12;12;
38451;PMS5003;24231;52.514;13.438;2023-05-28T01:39:08;10;10;
38451;PMS5003;24231;52.514;13.438;2023-05-28T01:41:36;9;8;
38451;PMS5003;24231;52.514;13.438;2023-05-28T01:44:03;10;9;
38451;PMS5003;24231;52.514;13.438;2023-05-28T01:46:30;9;9;
38451;PMS5003;24231;52.514;13.438;2023-05-28T01:48:58;9;8;
38451;PMS5003;24231;52.514;13.438;2023-05-28T01:51:25;11;10;
38451;PMS5003;24231;52.514;13.438;2023-05-28T01:53:52;8;8;
38451;PMS5003;24231;52.514;13.438;2023-05-28T01:56:20;11;10;
38451;PMS5003;24231;52.514;13.438;2023-05-28T01:58:47;8;6;
38451;PMS5003;24231;52.514;13.438;2023-05-28T02:01:16;11;11;
38451;PMS5003;24231;52.514;13.438;2023-05-28T02:03:50;11;9;
38451;PMS5003;24231;52.514;13.438;2023-05-28T02:06:18;9;9;
38451;PMS5003;24231;52.514;13.438;2023-05-28T02:08:45;7;7;
38451;PMS5003;24231;52.514;13.438;2023-05-28T02:11:12;9;7;
38451;PMS5003;24231;52.514;13.438;2023-05-28T02:13:40;10;7;
38451;PMS5003;24231;52.514;13.438;2023-05-28T02:16:07;11;9;
38451;PMS5003;24231;52.514;13.438;2023-05-28T02:18:35;10;9;
38451;PMS5003;24231;52.514;13.438;2023-05-28T02:21:02;10;8;
38451;PMS5003;24231;52.514;13.438;2023-05-28T02:23:30;12;8;
38451;PMS5003;24231;52.514;13.438;2023-05-28T02:25:57;11;8;
38451;PMS5003;24231;52.514;13.438;2023-05-28T02:28:24;11;7;
38451;PMS5003;24231;52.514;13.438;2023-05-28T02:30:52;6;6;
38451;PMS5003;24231;52.514;13.438;2023-05-28T02:33:19;6;6;
38451;PMS5003;24231;52.514;13.438;2023-05-28T02:35:46;10;8;
38451;PMS5003;24231;52.514;13.438;2023-05-28T02:38:13;10;8;
38451;PMS5003;24231;52.514;13.438;2023-05-28T02:40:41;9;8;
38451;PMS5003;24231;52.514;13.438;2023-05-28T02:43:07;11;8;
38451;PMS5003;24231;52.514;13.438;2023-05-28T02:45:35;8;8;
38451;PMS5003;24231;52.514;13.438;2023-05-28T02:48:02;7;6;
38451;PMS5003;24231;52.514;13.438;2023-05-28T02:50:29;8;7;
38451;PMS5003;24231;52.514;13.438;2023-05-28T02:52:57;7;7;
38451;PMS5003;24231;52.514;13.438;2023-05-28T02:55:24;8;8;
38451;PMS5003;24231;52.514;13.438;2023-05-28T02:57:51;11;7;
38451;PMS5003;24231;52.514;13.438;2023-05-28T03:00:18;8;8;
38451;PMS5003;24231;52.514;13.438;2023-05-28T03:02:46;9;9;
38451;PMS5003;24231;52.514;13.438;2023-05-28T03:05:13;11;7;
38451;PMS5003;24231;52.514;13.438;2023-05-28T03:07:40;8;8;
38451;PMS5003;24231;52.514;13.438;2023-05-28T03:10:07;8;8;
38451;PMS5003;24231;52.514;13.438;2023-05-28T03:12:35;11;7;
38451;PMS5003;24231;52.514;13.438;2023-05-28T03:15:03;6;5;
38451;PMS5003;24231;52.514;13.438;2023-05-28T03:17:30;11;8;
38451;PMS5003;24231;52.514;13.438;2023-05-28T03:19:58;8;8;
38451;PMS5003;24231;52.514;13.438;2023-05-28T03:22:25;10;9;
38451;PMS5003;24231;52.514;13.438;2023-05-28T03:24:52;12;10;
38451;PMS5003;24231;52.514;13.438;2023-05-28T03:27:19;10;9;
38451;PMS5003;24231;52.514;13.438;2023-05-28T03:29:46;10;6;
38451;PMS5003;24231;52.514;13.438;2023-05-28T03:32:13;7;6;
38451;PMS5003;24231;52.514;13.438;2023-05-28T03:34:40;9;8;
38451;PMS5003;24231;52.514;13.438;2023-05-28T03:37:07;8;7;
38451;PMS5003;24231;52.514;13.438;2023-05-28T03:39:35;7;4;
38451;PMS5003;24231;52.514;13.438;2023-05-28T03:42:01;8;8;
38451;PMS5003;24231;52.514;13.438;2023-05-28T03:44:29;9;8;
38451;PMS5003;24231;52.514;13.438;2023-05-28T03:46:55;8;6;
38451;PMS5003;24231;52.514;13.438;2023-05-28T03:49:23;9;7;
38451;PMS5003;24231;52.514;13.438;2023-05-28T03:51:50;14;11;
38451;PMS5003;24231;52.514;13.438;2023-05-28T03:54:17;9;8;
38451;PMS5003;24231;52.514;13.438;2023-05-28T03:56:44;8;8;
38451;PMS5003;24231;52.514;13.438;2023-05-28T03:59:11;6;6;
38451;PMS5003;24231;52.514;13.438;2023-05-28T04:01:38;12;8;
38451;PMS5003;24231;52.514;13.438;2023-05-28T04:04:05;7;6;
38451;PMS5003;24231;52.514;13.438;2023-05-28T04:06:32;9;8;
38451;PMS5003;24231;52.514;13.438;2023-05-28T04:08:59;11;8;
38451;PMS5003;24231;52.514;13.438;2023-05-28T04:11:26;7;5;
38451;PMS5003;24231;52.514;13.438;2023-05-28T04:13:53;6;6;
38451;PMS5003;24231;52.514;13.438;2023-05-28T04:16:21;6;6;
38451;PMS5003;24231;52.514;13.438;2023-05-28T04:18:49;8;7;
38451;PMS5003;24231;52.514;13.438;2023-05-28T04:21:16;8;7;
38451;PMS5003;24231;52.514;13.438;2023-05-28T04:23:43;11;9;
38451;PMS5003;24231;52.514;13.438;2023-05-28T04:26:10;8;8;
38451;PMS5003;24231;52.514;13.438;2023-05-28T04:28:37;9;9;
38451;PMS5003;24231;52.514;13.438;2023-05-28T04:31:05;9;9;
38451;PMS5003;24231;52.514;13.438;2023-05-28T04:33:33;9;9;
38451;PMS5003;24231;52.514;13.438;2023-05-28T04:36:01;6;6;
38451;PMS5003;24231;52.514;13.438;2023-05-28T04:38:28;9;6;
38451;PMS5003;24231;52.514;13.438;2023-05-28T04:40:55;9;7;
38451;PMS5003;24231;52.514;13.438;2023-05-28T04:43:22;13;11;
38451;PMS5003;24231;52.514;13.438;2023-05-28T04:46:02;8;8;
38451;PMS5003;24231;52.514;13.438;2023-05-28T04:48:29;7;5;
38451;PMS5003;24231;52.514;13.438;2023-05-28T04:50:57;9;8;
38451;PMS5003;24231;52.514;13.438;2023-05-28T04:53:24;12;8;
38451;PMS5003;24231;52.514;13.438;2023-05-28T04:55:52;10;7;
38451;PMS5003;24231;52.514;13.438;2023-05-28T04:58:19;9;6;
38451;PMS5003;24231;52.514;13.438;2023-05-28T05:00:47;8;8;
38451;PMS5003;24231;52.514;13.438;2023-05-28T05:03:14;7;7;
38451;PMS5003;24231;52.514;13.438;2023-05-28T05:05:41;10;9;
38451;PMS5003;24231;52.514;13.438;2023-05-28T05:08:08;11;7;
38451;PMS5003;24231;52.514;13.438;2023-05-28T05:10:35;5;3;
38451;PMS5003;24231;52.514;13.438;2023-05-28T05:13:02;7;4;
38451;PMS5003;24231;52.514;13.438;2023-05-28T05:15:29;5;3;
38451;PMS5003;24231;52.514;13.438;2023-05-28T05:17:57;5;5;
38451;PMS5003;24231;52.514;13.438;2023-05-28T05:20:25;5;5;
38451;PMS5003;24231;52.514;13.438;2023-05-28T05:22:52;5;5;
38451;PMS5003;24231;52.514;13.438;2023-05-28T05:25:19;5;5;
38451;PMS5003;24231;52.514;13.438;2023-05-28T05:27:47;7;7;
38451;PMS5003;24231;52.514;13.438;2023-05-28T05:30:15;8;8;
38451;PMS5003;24231;52.514;13.438;2023-05-28T05:32:42;11;9;
38451;PMS5003;24231;52.514;13.438;2023-05-28T05:35:09;5;5;
38451;PMS5003;24231;52.514;13.438;2023-05-28T05:37:37;13;11;
38451;PMS5003;24231;52.514;13.438;2023-05-28T05:40:05;7;6;
38451;PMS5003;24231;52.514;13.438;2023-05-28T05:42:33;6;6;
38451;PMS5003;24231;52.514;13.438;2023-05-28T05:45:00;7;5;
38451;PMS5003;24231;52.514;13.438;2023-05-28T05:47:27;7;6;
38451;PMS5003;24231;52.514;13.438;2023-05-28T05:49:54;4;4;
38451;PMS5003;24231;52.514;13.438;2023-05-28T05:52:21;8;7;
38451;PMS5003;24231;52.514;13.438;2023-05-28T05:54:49;7;5;
38451;PMS5003;24231;52.514;13.438;2023-05-28T05:57:16;7;7;
38451;PMS5003;24231;52.514;13.438;2023-05-28T05:59:43;4;4;
38451;PMS5003;24231;52.514;13.438;2023-05-28T06:02:10;6;4;
38451;PMS5003;24231;52.514;13.438;2023-05-28T06:04:39;3;3;
38451;PMS5003;24231;52.514;13.438;2023-05-28T06:07:06;6;4;
38451;PMS5003;24231;52.514;13.438;2023-05-28T06:09:34;5;5;
38451;PMS5003;24231;52.514;13.438;2023-05-28T06:12:02;5;4;
38451;PMS5003;24231;52.514;13.438;2023-05-28T06:14:29;9;5;
38451;PMS5003;24231;52.514;13.438;2023-05-28T06:16:57;6;4;
38451;PMS5003;24231;52.514;13.438;2023-05-28T06:19:25;8;7;
38451;PMS5003;24231;52.514;13.438;2023-05-28T06:21:52;13;10;
38451;PMS5003;24231;52.514;13.438;2023-05-28T06:24:19;5;4;
38451;PMS5003;24231;52.514;13.438;2023-05-28T06:26:47;4;3;
38451;PMS5003;24231;52.514;13.438;2023-05-28T06:29:14;4;4;
38451;PMS5003;24231;52.514;13.438;2023-05-28T06:31:42;3;3;
38451;PMS5003;24231;52.514;13.438;2023-05-28T06:34:09;2;2;
38451;PMS5003;24231;52.514;13.438;2023-05-28T06:36:37;4;4;
38451;PMS5003;24231;52.514;13.438;2023-05-28T06:39:04;3;2;
38451;PMS5003;24231;52.514;13.438;2023-05-28T06:41:32;3;3;
38451;PMS5003;24231;52.514;13.438;2023-05-28T06:43:59;3;3;
38451;PMS5003;24231;52.514;13.438;2023-05-28T06:46:27;4;3;
38451;PMS5003;24231;52.514;13.438;2023-05-28T06:48:54;2;2;
38451;PMS5003;24231;52.514;13.438;2023-05-28T06:51:22;5;5;
38451;PMS5003;24231;52.514;13.438;2023-05-28T06:53:50;4;4;
38451;PMS5003;24231;52.514;13.438;2023-05-28T06:56:17;3;3;
38451;PMS5003;24231;52.514;13.438;2023-05-28T06:58:45;2;2;
38451;PMS5003;24231;52.514;13.438;2023-05-28T07:01:12;5;5;
38451;PMS5003;24231;52.514;13.438;2023-05-28T07:03:40;2;2;
38451;PMS5003;24231;52.514;13.438;2023-05-28T07:06:07;5;5;
38451;PMS5003;24231;52.514;13.438;2023-05-28T07:08:35;3;3;
38451;PMS5003;24231;52.514;13.438;2023-05-28T07:11:02;6;3;
38451;PMS5003;24231;52.514;13.438;2023-05-28T07:15:16;3;2;
38451;PMS5003;24231;52.514;13.438;2023-05-28T07:17:43;3;2;
38451;PMS5003;24231;52.514;13.438;2023-05-28T07:20:11;3;3;
38451;PMS5003;24231;52.514;13.438;2023-05-28T07:22:38;1;1;
38451;PMS5003;24231;52.514;13.438;2023-05-28T07:25:06;3;3;
38451;PMS5003;24231;52.514;13.438;2023-05-28T07:27:33;2;2;
38451;PMS5003;24231;52.514;13.438;2023-05-28T07:30:01;1;1;
38451;PMS5003;24231;52.514;13.438;2023-05-28T07:32:28;1;1;
38451;PMS5003;24231;52.514;13.438;2023-05-28T07:34:56;3;3;
38451;PMS5003;24231;52.514;13.438;2023-05-28T07:37:23;2;2;
38451;PMS5003;24231;52.514;13.438;2023-05-28T07:39:51;3;2;
38451;PMS5003;24231;52.514;13.438;2023-05-28T07:42:19;1;1;
38451;PMS5003;24231;52.514;13.438;2023-05-28T07:44:46;3;3;
38451;PMS5003;24231;52.514;13.438;2023-05-28T07:47:13;4;4;
38451;PMS5003;24231;52.514;13.438;2023-05-28T07:49:41;5;3;
38451;PMS5003;24231;52.514;13.438;2023-05-28T07:52:09;1;1;
38451;PMS5003;24231;52.514;13.438;2023-05-28T07:54:36;4;3;
38451;PMS5003;24231;52.514;13.438;2023-05-28T07:57:04;1;1;
38451;PMS5003;24231;52.514;13.438;2023-05-28T07:59:30;2;2;
38451;PMS5003;24231;52.514;13.438;2023-05-28T08:01:58;1;1;
38451;PMS5003;24231;52.514;13.438;2023-05-28T08:04:26;3;3;
38451;PMS5003;24231;52.514;13.438;2023-05-28T08:06:54;2;0;
38451;PMS5003;24231;52.514;13.438;2023-05-28T08:09:21;1;1;
38451;PMS5003;24231;52.514;13.438;2023-05-28T08:11:48;3;3;
38451;PMS5003;24231;52.514;13.438;2023-05-28T08:14:16;3;2;
38451;PMS5003;24231;52.514;13.438;2023-05-28T08:16:43;2;1;
38451;PMS5003;24231;52.514;13.438;2023-05-28T08:19:11;3;3;
38451;PMS5003;24231;52.514;13.438;2023-05-28T08:21:38;2;1;
38451;PMS5003;24231;52.514;13.438;2023-05-28T08:24:06;7;5;
38451;PMS5003;24231;52.514;13.438;2023-05-28T08:26:33;6;6;
38451;PMS5003;24231;52.514;13.438;2023-05-28T08:29:00;5;5;
38451;PMS5003;24231;52.514;13.438;2023-05-28T08:31:28;4;2;
38451;PMS5003;24231;52.514;13.438;2023-05-28T08:33:55;1;0;
38451;PMS5003;24231;52.514;13.438;2023-05-28T08:36:23;4;4;
38451;PMS5003;24231;52.514;13.438;2023-05-28T08:38:50;3;2;
38451;PMS5003;24231;52.514;13.438;2023-05-28T08:41:18;2;2;
38451;PMS5003;24231;52.514;13.438;2023-05-28T08:43:45;1;1;
38451;PMS5003;24231;52.514;13.438;2023-05-28T08:46:13;3;3;
38451;PMS5003;24231;52.514;13.438;2023-05-28T08:48:41;3;2;
38451;PMS5003;24231;52.514;13.438;2023-05-28T08:51:09;1;1;
38451;PMS5003;24231;52.514;13.438;2023-05-28T08:53:39;1;1;
38451;PMS5003;24231;52.514;13.438;2023-05-28T08:56:09;3;1;
38451;PMS5003;24231;52.514;13.438;2023-05-28T08:58:37;2;2;
38451;PMS5003;24231;52.514;13.438;2023-05-28T09:01:04;3;2;
38451;PMS5003;24231;52.514;13.438;2023-05-28T09:03:32;5;4;
38451;PMS5003;24231;52.514;13.438;2023-05-28T09:06:00;1;1;
38451;PMS5003;24231;52.514;13.438;2023-05-28T09:08:28;3;2;
38451;PMS5003;24231;52.514;13.438;2023-05-28T09:10:56;4;2;
38451;PMS5003;24231;52.514;13.438;2023-05-28T09:13:25;6;5;
38451;PMS5003;24231;52.514;13.438;2023-05-28T09:15:52;1;1;
38451;PMS5003;24231;52.514;13.438;2023-05-28T09:18:19;0;0;
38451;PMS5003;24231;52.514;13.438;2023-05-28T09:20:47;2;2;
38451;PMS5003;24231;52.514;13.438;2023-05-28T09:23:16;2;2;
38451;PMS5003;24231;52.514;13.438;2023-05-28T09:25:43;4;1;
38451;PMS5003;24231;52.514;13.438;2023-05-28T09:28:11;3;1;
38451;PMS5003;24231;52.514;13.438;2023-05-28T09:30:43;0;0;
38451;PMS5003;24231;52.514;13.438;2023-05-28T09:33:10;6;4;
38451;PMS5003;24231;52.514;13.438;2023-05-28T09:35:38;2;0;
38451;PMS5003;24231;52.514;13.438;2023-05-28T09:38:07;3;1;
38451;PMS5003;24231;52.514;13.438;2023-05-28T09:40:37;1;1;
38451;PMS5003;24231;52.514;13.438;2023-05-28T09:43:04;1;1;
38451;PMS5003;24231;52.514;13.438;2023-05-28T09:45:32;1;1;
38451;PMS5003;24231;52.514;13.438;2023-05-28T09:47:59;2;1;
38451;PMS5003;24231;52.514;13.438;2023-05-28T09:50:27;5;3;
38451;PMS5003;24231;52.514;13.438;2023-05-28T09:52:55;3;3;
38451;PMS5003;24231;52.514;13.438;2023-05-28T09:55:24;2;2;
38451;PMS5003;24231;52.514;13.438;2023-05-28T09:57:54;1;1;
38451;PMS5003;24231;52.514;13.438;2023-05-28T10:00:30;5;3;
38451;PMS5003;24231;52.514;13.438;2023-05-28T10:03:01;2;2;
38451;PMS5003;24231;52.514;13.438;2023-05-28T10:05:38;1;1;
38451;PMS5003;24231;52.514;13.438;2023-05-28T10:08:07;3;2;
38451;PMS5003;24231;52.514;13.438;2023-05-28T10:10:38;2;1;
38451;PMS5003;24231;52.514;13.438;2023-05-28T10:13:07;5;3;
38451;PMS5003;24231;52.514;13.438;2023-05-28T10:15:35;2;2;
38451;PMS5003;24231;52.514;13.438;2023-05-28T10:18:02;2;2;
38451;PMS5003;24231;52.514;13.438;2023-05-28T10:20:29;12;10;
38451;PMS5003;24231;52.514;13.438;2023-05-28T10:22:57;2;2;
38451;PMS5003;24231;52.514;13.438;2023-05-28T10:25:24;3;3;
38451;PMS5003;24231;52.514;13.438;2023-05-28T10:27:53;4;4;
38451;PMS5003;24231;52.514;13.438;2023-05-28T10:30:33;3;2;
38451;PMS5003;24231;52.514;13.438;2023-05-28T10:33:03;3;3;
38451;PMS5003;24231;52.514;13.438;2023-05-28T10:35:31;1;1;
38451;PMS5003;24231;52.514;13.438;2023-05-28T10:38:03;0;0;
38451;PMS5003;24231;52.514;13.438;2023-05-28T10:40:32;1;1;
38451;PMS5003;24231;52.514;13.438;2023-05-28T10:43:00;3;2;
38451;PMS5003;24231;52.514;13.438;2023-05-28T10:45:36;2;2;
38451;PMS5003;24231;52.514;13.438;2023-05-28T10:48:04;2;1;
38451;PMS5003;24231;52.514;13.438;2023-05-28T10:50:32;2;2;
38451;PMS5003;24231;52.514;13.438;2023-05-28T10:53:02;3;3;
38451;PMS5003;24231;52.514;13.438;2023-05-28T10:55:40;3;2;
38451;PMS5003;24231;52.514;13.438;2023-05-28T10:58:18;3;3;
38451;PMS5003;24231;52.514;13.438;2023-05-28T11:00:49;1;1;
38451;PMS5003;24231;52.514;13.438;2023-05-28T11:03:17;1;1;
38451;PMS5003;24231;52.514;13.438;2023-05-28T11:06:06;2;2;
38451;PMS5003;24231;52.514;13.438;2023-05-28T11:08:39;2;2;
38451;PMS5003;24231;52.514;13.438;2023-05-28T11:11:13;4;4;
38451;PMS5003;24231;52.514;13.438;2023-05-28T11:13:45;4;3;
38451;PMS5003;24231;52.514;13.438;2023-05-28T11:16:15;2;2;
38451;PMS5003;24231;52.514;13.438;2023-05-28T11:19:15;3;1;
38451;PMS5003;24231;52.514;13.438;2023-05-28T11:21:50;1;1;
38451;PMS5003;24231;52.514;13.438;2023-05-28T11:24:17;1;1;
38451;PMS5003;24231;52.514;13.438;2023-05-28T11:26:51;2;2;
38451;PMS5003;24231;52.514;13.438;2023-05-28T11:29:18;15;12;
38451;PMS5003;24231;52.514;13.438;2023-05-28T11:31:46;10;9;
38451;PMS5003;24231;52.514;13.438;2023-05-28T11:34:14;2;2;
38451;PMS5003;24231;52.514;13.438;2023-05-28T11:36:46;8;8;
38451;PMS5003;24231;52.514;13.438;2023-05-28T11:39:19;6;5;
38451;PMS5003;24231;52.514;13.438;2023-05-28T11:41:46;3;2;
38451;PMS5003;24231;52.514;13.438;2023-05-28T11:44:18;4;2;
38451;PMS5003;24231;52.514;13.438;2023-05-28T11:46:48;7;5;
38451;PMS5003;24231;52.514;13.438;2023-05-28T11:49:16;2;2;
38451;PMS5003;24231;52.514;13.438;2023-05-28T11:51:43;2;2;
38451;PMS5003;24231;52.514;13.438;2023-05-28T11:54:10;3;2;
38451;PMS5003;24231;52.514;13.438;2023-05-28T11:56:37;2;2;
38451;PMS5003;24231;52.514;13.438;2023-05-28T11:59:04;4;3;
38451;PMS5003;24231;52.514;13.438;2023-05-28T12:01:31;2;2;
38451;PMS5003;24231;52.514;13.438;2023-05-28T12:04:06;3;3;
38451;PMS5003;24231;52.514;13.438;2023-05-28T12:06:34;3;2;
38451;PMS5003;24231;52.514;13.438;2023-05-28T12:09:16;5;3;
38451;PMS5003;24231;52.514;13.438;2023-05-28T12:11:43;2;2;
38451;PMS5003;24231;52.514;13.438;2023-05-28T12:14:10;4;3;
38451;PMS5003;24231;52.514;13.438;2023-05-28T12:16:45;3;3;
38451;PMS5003;24231;52.514;13.438;2023-05-28T12:19:13;5;5;
38451;PMS5003;24231;52.514;13.438;2023-05-28T12:21:41;3;3;
38451;PMS5003;24231;52.514;13.438;2023-05-28T12:24:11;4;4;
38451;PMS5003;24231;52.514;13.438;2023-05-28T12:26:38;4;4;
38451;PMS5003;24231;52.514;13.438;2023-05-28T12:29:05;3;3;
38451;PMS5003;24231;52.514;13.438;2023-05-28T12:31:32;1;1;
38451;PMS5003;24231;52.514;13.438;2023-05-28T12:33:59;5;3;
38451;PMS5003;24231;52.514;13.438;2023-05-28T12:36:25;1;1;
38451;PMS5003;24231;52.514;13.438;2023-05-28T12:38:52;2;2;
38451;PMS5003;24231;52.514;13.438;2023-05-28T12:41:19;2;2;
38451;PMS5003;24231;52.514;13.438;2023-05-28T12:43:47;1;1;
38451;PMS5003;24231;52.514;13.438;2023-05-28T12:46:14;4;4;
38451;PMS5003;24231;52.514;13.438;2023-05-28T12:48:40;2;2;
38451;PMS5003;24231;52.514;13.438;2023-05-28T12:51:07;2;2;
38451;PMS5003;24231;52.514;13.438;2023-05-28T12:53:35;2;2;
38451;PMS5003;24231;52.514;13.438;2023-05-28T12:56:03;6;4;
38451;PMS5003;24231;52.514;13.438;2023-05-28T12:58:30;5;3;
38451;PMS5003;24231;52.514;13.438;2023-05-28T13:00:57;0;0;
38451;PMS5003;24231;52.514;13.438;2023-05-28T13:03:24;3;3;
38451;PMS5003;24231;52.514;13.438;2023-05-28T13:05:51;1;1;
38451;PMS5003;24231;52.514;13.438;2023-05-28T13:08:18;2;2;
38451;PMS5003;24231;52.514;13.438;2023-05-28T13:10:45;0;0;
38451;PMS5003;24231;52.514;13.438;2023-05-28T13:13:13;5;3;
38451;PMS5003;24231;52.514;13.438;2023-05-28T13:15:40;2;1;
38451;PMS5003;24231;52.514;13.438;2023-05-28T13:18:08;3;2;
38451;PMS5003;24231;52.514;13.438;2023-05-28T13:20:35;3;3;
38451;PMS5003;24231;52.514;13.438;2023-05-28T13:23:02;1;1;
38451;PMS5003;24231;52.514;13.438;2023-05-28T13:25:29;2;2;
38451;PMS5003;24231;52.514;13.438;2023-05-28T13:27:58;3;1;
38451;PMS5003;24231;52.514;13.438;2023-05-28T13:30:26;1;1;
38451;PMS5003;24231;52.514;13.438;2023-05-28T13:32:52;4;2;
38451;PMS5003;24231;52.514;13.438;2023-05-28T13:35:19;2;2;
38451;PMS5003;24231;52.514;13.438;2023-05-28T13:37:47;5;5;
38451;PMS5003;24231;52.514;13.438;2023-05-28T13:40:14;2;1;
38451;PMS5003;24231;52.514;13.438;2023-05-28T13:42:41;1;1;
38451;PMS5003;24231;52.514;13.438;2023-05-28T13:45:08;3;3;
38451;PMS5003;24231;52.514;13.438;2023-05-28T13:47:36;2;1;
38451;PMS5003;24231;52.514;13.438;2023-05-28T13:50:04;2;1;
38451;PMS5003;24231;52.514;13.438;2023-05-28T13:52:31;6;5;
38451;PMS5003;24231;52.514;13.438;2023-05-28T13:54:59;3;2;
38451;PMS5003;24231;52.514;13.438;2023-05-28T13:57:26;3;3;
38451;PMS5003;24231;52.514;13.438;2023-05-28T13:59:53;2;1;
38451;PMS5003;24231;52.514;13.438;2023-05-28T14:02:20;13;10;
38451;PMS5003;24231;52.514;13.438;2023-05-28T14:04:47;2;2;
38451;PMS5003;24231;52.514;13.438;2023-05-28T14:07:14;3;3;
38451;PMS5003;24231;52.514;13.438;2023-05-28T14:09:41;3;3;
38451;PMS5003;24231;52.514;13.438;2023-05-28T14:12:09;8;8;
38451;PMS5003;24231;52.514;13.438;2023-05-28T14:14:36;4;3;
38451;PMS5003;24231;52.514;13.438;2023-05-28T14:17:03;6;4;
38451;PMS5003;24231;52.514;13.438;2023-05-28T14:19:30;3;3;
38451;PMS5003;24231;52.514;13.438;2023-05-28T14:21:57;2;2;
38451;PMS5003;24231;52.514;13.438;2023-05-28T14:24:24;1;1;
38451;PMS5003;24231;52.514;13.438;2023-05-28T14:26:51;2;1;
38451;PMS5003;24231;52.514;13.438;2023-05-28T14:29:17;2;2;
38451;PMS5003;24231;52.514;13.438;2023-05-28T14:31:44;1;1;
38451;PMS5003;24231;52.514;13.438;2023-05-28T14:34:11;5;3;
38451;PMS5003;24231;52.514;13.438;2023-05-28T14:36:38;1;1;
38451;PMS5003;24231;52.514;13.438;2023-05-28T14:39:05;2;2;
38451;PMS5003;24231;52.514;13.438;2023-05-28T14:41:31;2;2;
38451;PMS5003;24231;52.514;13.438;2023-05-28T14:43:58;4;3;
38451;PMS5003;24231;52.514;13.438;2023-05-28T14:46:25;1;1;
38451;PMS5003;24231;52.514;13.438;2023-05-28T14:48:52;4;2;
38451;PMS5003;24231;52.514;13.438;2023-05-28T14:51:19;2;1;
38451;PMS5003;24231;52.514;13.438;2023-05-28T14:53:46;1;1;
38451;PMS5003;24231;52.514;13.438;2023-05-28T14:56:12;2;2;
38451;PMS5003;24231;52.514;13.438;2023-05-28T14:58:39;3;3;
38451;PMS5003;24231;52.514;13.438;2023-05-28T15:01:06;1;1;
38451;PMS5003;24231;52.514;13.438;2023-05-28T15:03:33;1;1;
38451;PMS5003;24231;52.514;13.438;2023-05-28T15:06:00;4;4;
38451;PMS5003;24231;52.514;13.438;2023-05-28T15:08:27;4;3;
38451;PMS5003;24231;52.514;13.438;2023-05-28T15:10:54;1;0;
38451;PMS5003;24231;52.514;13.438;2023-05-28T15:13:21;2;2;
38451;PMS5003;24231;52.514;13.438;2023-05-28T15:15:48;2;2;
38451;PMS5003;24231;52.514;13.438;2023-05-28T15:18:15;1;1;
38451;PMS5003;24231;52.514;13.438;2023-05-28T15:20:42;4;3;
38451;PMS5003;24231;52.514;13.438;2023-05-28T15:23:09;8;5;
38451;PMS5003;24231;52.514;13.438;2023-05-28T15:25:37;2;2;
38451;PMS5003;24231;52.514;13.438;2023-05-28T15:28:05;3;2;
38451;PMS5003;24231;52.514;13.438;2023-05-28T15:30:32;1;1;
38451;PMS5003;24231;52.514;13.438;2023-05-28T15:33:00;1;1;
38451;PMS5003;24231;52.514;13.438;2023-05-28T15:35:29;12;12;
38451;PMS5003;24231;52.514;13.438;2023-05-28T15:37:57;11;10;
38451;PMS5003;24231;52.514;13.438;2023-05-28T15:40:24;1;1;
38451;PMS5003;24231;52.514;13.438;2023-05-28T15:42:52;5;3;
38451;PMS5003;24231;52.514;13.438;2023-05-28T15:45:25;4;2;
38451;PMS5003;24231;52.514;13.438;2023-05-28T15:47:52;2;2;
38451;PMS5003;24231;52.514;13.438;2023-05-28T15:50:19;2;2;
38451;PMS5003;24231;52.514;13.438;2023-05-28T15:52:46;4;3;
38451;PMS5003;24231;52.514;13.438;2023-05-28T15:55:13;2;2;
38451;PMS5003;24231;52.514;13.438;2023-05-28T15:57:41;3;3;
38451;PMS5003;24231;52.514;13.438;2023-05-28T16:00:09;2;2;
38451;PMS5003;24231;52.514;13.438;2023-05-28T16:02:37;2;2;
38451;PMS5003;24231;52.514;13.438;2023-05-28T16:05:08;6;6;
38451;PMS5003;24231;52.514;13.438;2023-05-28T16:07:36;6;5;
38451;PMS5003;24231;52.514;13.438;2023-05-28T16:10:04;9;6;
38451;PMS5003;24231;52.514;13.438;2023-05-28T16:12:32;9;9;
38451;PMS5003;24231;52.514;13.438;2023-05-28T16:15:04;8;7;
38451;PMS5003;24231;52.514;13.438;2023-05-28T16:17:33;6;5;
38451;PMS5003;24231;52.514;13.438;2023-05-28T16:20:02;2;2;
38451;PMS5003;24231;52.514;13.438;2023-05-28T16:22:29;2;1;
38451;PMS5003;24231;52.514;13.438;2023-05-28T16:24:57;1;1;
38451;PMS5003;24231;52.514;13.438;2023-05-28T16:27:26;6;4;
38451;PMS5003;24231;52.514;13.438;2023-05-28T16:29:54;22;21;
38451;PMS5003;24231;52.514;13.438;2023-05-28T16:32:23;4;4;
38451;PMS5003;24231;52.514;13.438;2023-05-28T16:34:50;2;2;
38451;PMS5003;24231;52.514;13.438;2023-05-28T16:37:18;4;4;
38451;PMS5003;24231;52.514;13.438;2023-05-28T16:39:46;4;3;
38451;PMS5003;24231;52.514;13.438;2023-05-28T16:42:13;2;2;
38451;PMS5003;24231;52.514;13.438;2023-05-28T16:44:41;5;3;